createdAt,value
2019-01-26T00:00:17.380Z,12.67
2019-01-26T00:02:45.656Z,14.07
2019-01-26T00:05:13.940Z,14.00
2019-01-26T00:07:42.226Z,14.57
2019-01-26T00:10:10.481Z,16.63
2019-01-26T00:12:38.766Z,16.20
2019-01-26T00:15:12.968Z,16.77
2019-01-26T00:17:41.245Z,16.90
2019-01-26T00:20:10.041Z,16.97
2019-01-26T00:22:38.331Z,19.43
2019-01-26T00:25:06.648Z,19.73
2019-01-26T00:27:34.929Z,17.50
2019-01-26T00:30:05.337Z,20.70
2019-01-26T00:32:33.675Z,18.80
2019-01-26T00:35:01.923Z,23.13
2019-01-26T00:37:30.207Z,21.20
2019-01-26T00:39:58.470Z,19.10
2019-01-26T00:42:26.754Z,20.93
2019-01-26T00:44:55.043Z,20.50
2019-01-26T00:47:23.329Z,25.17
2019-01-26T00:49:51.606Z,24.60
2019-01-26T00:52:19.867Z,19.60
2019-01-26T00:54:48.203Z,21.10
2019-01-26T00:57:16.458Z,21.50
2019-01-26T00:59:44.742Z,20.80
2019-01-26T01:02:13.053Z,20.20
2019-01-26T01:04:41.360Z,21.13
2019-01-26T01:07:09.655Z,21.87
2019-01-26T01:09:37.946Z,17.20
2019-01-26T01:12:06.242Z,21.17
2019-01-26T01:14:34.559Z,18.10
2019-01-26T01:17:03.201Z,26.07
2019-01-26T01:19:31.485Z,19.60
2019-01-26T01:21:59.764Z,24.60
2019-01-26T01:24:28.027Z,20.20
2019-01-26T01:26:56.461Z,24.87
2019-01-26T01:29:24.748Z,15.80
2019-01-26T01:31:53.002Z,24.67
2019-01-26T01:34:21.281Z,18.80
2019-01-26T01:36:49.586Z,17.33
2019-01-26T01:39:17.875Z,16.47
2019-01-26T01:41:46.130Z,19.07
2019-01-26T01:44:14.421Z,16.73
2019-01-26T01:46:43.076Z,20.57
2019-01-26T01:49:11.575Z,18.50
2019-01-26T01:51:39.856Z,17.97
2019-01-26T01:54:08.813Z,14.90
2019-01-26T01:56:37.072Z,15.00
2019-01-26T01:59:05.405Z,16.07
2019-01-26T02:01:34.617Z,14.57
2019-01-26T02:04:02.874Z,12.87
2019-01-26T02:06:31.172Z,14.60
2019-01-26T02:08:59.463Z,17.50
2019-01-26T02:11:27.737Z,17.30
2019-01-26T02:13:56.000Z,16.77
2019-01-26T02:16:24.444Z,14.60
2019-01-26T02:18:53.517Z,14.60
2019-01-26T02:21:21.768Z,16.03
2019-01-26T02:23:50.090Z,13.30
2019-01-26T02:26:18.363Z,14.17
2019-01-26T02:28:46.649Z,14.63
2019-01-26T02:31:14.917Z,19.40
2019-01-26T02:33:43.235Z,18.47
2019-01-26T02:36:11.490Z,17.33
2019-01-26T02:38:39.772Z,13.17
2019-01-26T02:41:08.039Z,17.47
2019-01-26T02:43:36.358Z,17.83
2019-01-26T02:46:04.619Z,16.90
2019-01-26T02:48:32.947Z,19.90
2019-01-26T02:51:01.235Z,26.13
2019-01-26T02:53:29.540Z,16.50
2019-01-26T02:55:57.817Z,14.80
2019-01-26T02:58:26.204Z,14.70
2019-01-26T03:00:54.471Z,14.33
2019-01-26T03:03:22.768Z,15.00
2019-01-26T03:05:51.046Z,14.57
2019-01-26T03:08:19.347Z,11.80
2019-01-26T03:10:47.626Z,13.30
2019-01-26T03:13:15.875Z,14.20
2019-01-26T03:15:44.152Z,12.77
2019-01-26T03:18:12.437Z,13.00
2019-01-26T03:20:40.707Z,13.77
2019-01-26T03:23:09.021Z,12.10
2019-01-26T03:25:37.859Z,12.67
2019-01-26T03:28:06.164Z,12.87
2019-01-26T03:30:34.434Z,13.03
2019-01-26T03:33:04.311Z,11.43
2019-01-26T03:35:32.614Z,14.73
2019-01-26T03:38:00.932Z,14.63
2019-01-26T03:40:29.182Z,14.47
2019-01-26T03:42:57.589Z,13.87
2019-01-26T03:45:25.858Z,15.87
2019-01-26T03:47:54.119Z,19.57
2019-01-26T03:50:22.426Z,13.10
2019-01-26T03:52:50.725Z,13.03
2019-01-26T03:55:21.136Z,15.43
2019-01-26T03:57:49.753Z,12.70
2019-01-26T04:00:21.333Z,11.57
2019-01-26T04:02:49.584Z,11.77
2019-01-26T04:05:18.632Z,12.00
2019-01-26T04:07:47.051Z,10.70
2019-01-26T04:10:15.795Z,12.00
2019-01-26T04:12:44.058Z,12.90
2019-01-26T04:15:14.454Z,12.70
2019-01-26T04:17:42.844Z,13.00
2019-01-26T04:20:14.033Z,13.87
2019-01-26T04:22:42.401Z,12.60
2019-01-26T04:25:12.331Z,13.07
2019-01-26T04:27:40.641Z,12.63
2019-01-26T04:30:14.827Z,12.13
2019-01-26T04:32:43.140Z,12.53
2019-01-26T04:35:11.833Z,12.37
2019-01-26T04:37:40.113Z,13.53
2019-01-26T04:40:11.029Z,13.67
2019-01-26T04:42:39.382Z,12.83
2019-01-26T04:45:13.318Z,13.57
2019-01-26T04:47:41.598Z,12.20
2019-01-26T04:50:12.500Z,12.00
2019-01-26T04:52:40.816Z,12.00
2019-01-26T04:55:09.083Z,11.80
2019-01-26T04:57:37.630Z,12.53
2019-01-26T05:00:09.373Z,12.23
2019-01-26T05:02:37.629Z,12.07
2019-01-26T05:05:05.916Z,11.17
2019-01-26T05:07:34.219Z,11.80
2019-01-26T05:10:02.494Z,11.80
2019-01-26T05:12:30.755Z,12.33
2019-01-26T05:14:59.112Z,10.43
2019-01-26T05:17:27.411Z,12.00
2019-01-26T05:19:55.694Z,12.50
2019-01-26T05:22:23.951Z,11.70
2019-01-26T05:24:52.234Z,10.87
2019-01-26T05:27:20.862Z,11.80
2019-01-26T05:29:49.132Z,11.10
2019-01-26T05:32:17.386Z,13.50
2019-01-26T05:34:45.689Z,13.40
2019-01-26T05:37:13.950Z,11.97
2019-01-26T05:39:42.207Z,11.40
2019-01-26T05:42:10.490Z,12.60
2019-01-26T05:44:38.746Z,12.67
2019-01-26T05:47:07.021Z,12.03
2019-01-26T05:49:35.283Z,13.07
2019-01-26T05:52:03.621Z,12.60
2019-01-26T05:54:31.899Z,13.20
2019-01-26T05:57:00.155Z,14.50
2019-01-26T05:59:28.487Z,13.13
2019-01-26T06:01:56.736Z,12.33
2019-01-26T06:04:25.064Z,14.40
2019-01-26T06:06:53.340Z,13.30
2019-01-26T06:09:21.682Z,13.90
2019-01-26T06:11:49.977Z,12.57
2019-01-26T06:14:18.299Z,12.90
2019-01-26T06:16:46.912Z,13.50
2019-01-26T06:19:15.163Z,12.43
2019-01-26T06:21:43.481Z,12.13
2019-01-26T06:24:11.885Z,12.07
2019-01-26T06:26:40.176Z,11.97
2019-01-26T06:29:08.429Z,13.73
2019-01-26T06:31:36.707Z,13.53
2019-01-26T06:34:04.961Z,13.90
2019-01-26T06:36:33.300Z,15.23
2019-01-26T06:39:01.602Z,14.90
2019-01-26T06:41:30.040Z,13.60
2019-01-26T06:43:58.285Z,13.20
2019-01-26T06:46:26.575Z,16.13
2019-01-26T06:48:56.547Z,16.10
2019-01-26T06:51:24.802Z,14.40
2019-01-26T06:53:53.368Z,16.00
2019-01-26T06:56:21.644Z,15.90
2019-01-26T06:58:49.972Z,16.63
2019-01-26T07:01:18.228Z,15.73
2019-01-26T07:03:46.505Z,15.90
2019-01-26T07:06:18.929Z,16.70
2019-01-26T07:08:47.384Z,17.27
2019-01-26T07:11:15.675Z,15.50
2019-01-26T07:13:44.048Z,15.77
2019-01-26T07:16:13.488Z,15.27
2019-01-26T07:18:41.784Z,16.43
2019-01-26T07:21:10.060Z,16.70
2019-01-26T07:23:38.318Z,15.30
2019-01-26T07:26:06.626Z,16.43
2019-01-26T07:28:34.931Z,14.40
2019-01-26T07:31:03.216Z,13.57
2019-01-26T07:33:31.492Z,14.47
2019-01-26T07:35:59.784Z,13.53
2019-01-26T07:38:28.087Z,14.37
2019-01-26T07:40:56.335Z,13.10
2019-01-26T07:43:24.663Z,14.30
2019-01-26T07:45:52.921Z,15.23
2019-01-26T07:48:21.193Z,15.53
2019-01-26T07:50:49.512Z,13.97
2019-01-26T07:53:17.826Z,13.53
2019-01-26T07:55:46.120Z,13.80
2019-01-26T07:58:14.397Z,13.00
2019-01-26T08:00:42.775Z,14.00
2019-01-26T08:03:11.199Z,13.10
2019-01-26T08:05:39.448Z,13.03
2019-01-26T08:08:07.705Z,13.43
2019-01-26T08:10:35.992Z,11.60
2019-01-26T08:13:04.282Z,12.60
2019-01-26T08:15:33.406Z,12.43
2019-01-26T08:18:01.666Z,11.60
2019-01-26T08:20:29.944Z,11.60
2019-01-26T08:22:58.201Z,12.13
2019-01-26T08:25:26.479Z,10.60
2019-01-26T08:27:54.779Z,11.00
2019-01-26T08:30:24.732Z,12.37
2019-01-26T08:32:52.988Z,12.03
2019-01-26T08:35:21.275Z,13.20
2019-01-26T08:37:49.603Z,11.10
2019-01-26T08:40:21.734Z,11.40
2019-01-26T08:42:50.047Z,11.70
2019-01-26T08:45:19.070Z,12.57
2019-01-26T08:47:47.528Z,11.70
2019-01-26T08:50:18.685Z,10.50
2019-01-26T08:52:49.215Z,11.60
2019-01-26T08:55:18.295Z,10.40
2019-01-26T08:57:47.086Z,10.33
2019-01-26T09:00:18.664Z,10.13
2019-01-26T09:02:55.493Z,9.77
2019-01-26T09:05:34.685Z,10.60
2019-01-26T09:08:02.973Z,9.03
2019-01-26T09:10:31.287Z,10.20
2019-01-26T09:13:00.173Z,9.27
2019-01-26T09:15:28.448Z,9.53
2019-01-26T09:17:56.699Z,9.67
2019-01-26T09:20:25.023Z,9.60
2019-01-26T09:22:53.260Z,9.40
2019-01-26T09:25:21.543Z,11.27
2019-01-26T09:27:50.072Z,11.13
2019-01-26T09:30:21.913Z,10.83
2019-01-26T09:32:50.205Z,10.40
2019-01-26T09:35:18.572Z,10.00
2019-01-26T09:37:46.836Z,11.43
2019-01-26T09:40:20.367Z,10.10
2019-01-26T09:42:48.644Z,10.77
2019-01-26T09:45:20.930Z,10.27
2019-01-26T09:47:49.267Z,9.90
2019-01-26T09:50:17.870Z,9.43
2019-01-26T09:52:46.146Z,10.30
2019-01-26T09:55:17.125Z,10.33
2019-01-26T09:57:45.405Z,10.60
2019-01-26T10:00:19.012Z,8.80
2019-01-26T10:02:47.283Z,9.40
2019-01-26T10:05:15.545Z,8.63
2019-01-26T10:07:43.867Z,9.00
2019-01-26T10:10:14.328Z,8.47
2019-01-26T10:12:42.574Z,7.73
2019-01-26T10:15:26.969Z,8.03
2019-01-26T10:17:55.285Z,8.90
2019-01-26T10:20:26.512Z,7.63
2019-01-26T10:22:54.867Z,7.40
2019-01-26T10:25:23.147Z,7.30
2019-01-26T10:27:51.404Z,7.90
2019-01-26T10:30:26.942Z,7.07
2019-01-26T10:32:55.196Z,6.77
2019-01-26T10:35:25.277Z,6.83
2019-01-26T10:37:53.519Z,6.77
2019-01-26T10:40:23.412Z,6.60
2019-01-26T10:42:51.685Z,7.20
2019-01-26T10:45:19.947Z,7.97
2019-01-26T10:47:48.260Z,6.20
2019-01-26T10:50:16.513Z,6.27
2019-01-26T10:52:44.821Z,6.97
2019-01-26T10:55:13.184Z,6.60
2019-01-26T10:57:41.440Z,7.70
2019-01-26T11:00:13.015Z,7.57
2019-01-26T11:02:41.336Z,7.93
2019-01-26T11:05:09.935Z,9.17
2019-01-26T11:07:38.194Z,7.30
2019-01-26T11:10:09.774Z,8.97
2019-01-26T11:12:38.019Z,10.63
2019-01-26T11:15:09.351Z,11.10
2019-01-26T11:17:37.604Z,11.10
2019-01-26T11:20:12.099Z,11.30
2019-01-26T11:22:40.355Z,13.50
2019-01-26T11:25:11.173Z,13.53
2019-01-26T11:27:39.461Z,12.70
2019-01-26T11:30:13.255Z,13.60
2019-01-26T11:32:41.505Z,13.93
2019-01-26T11:35:13.058Z,14.77
2019-01-26T11:37:41.334Z,14.73
2019-01-26T11:40:12.519Z,13.90
2019-01-26T11:42:40.838Z,14.50
2019-01-26T11:45:15.254Z,13.93
2019-01-26T11:47:43.562Z,16.13
2019-01-26T11:50:13.454Z,15.43
2019-01-26T11:52:42.018Z,14.67
2019-01-26T11:55:14.765Z,15.80
2019-01-26T11:57:43.018Z,14.83
2019-01-26T12:00:25.063Z,15.57
2019-01-26T12:02:54.981Z,14.80
2019-01-26T12:05:24.873Z,15.63
2019-01-26T12:07:53.161Z,15.23
2019-01-26T12:10:21.438Z,15.13
2019-01-26T12:12:49.734Z,14.67
2019-01-26T12:15:18.007Z,13.80
2019-01-26T12:17:46.298Z,14.60
2019-01-26T12:20:16.613Z,14.70
2019-01-26T12:22:44.902Z,13.20
2019-01-26T12:25:13.208Z,13.50
2019-01-26T12:27:41.454Z,15.00
2019-01-26T12:30:14.674Z,12.93
2019-01-26T12:32:42.901Z,15.40
2019-01-26T12:35:14.599Z,14.60
2019-01-26T12:37:43.822Z,16.43
2019-01-26T12:40:14.092Z,17.00
2019-01-26T12:42:42.340Z,15.63
2019-01-26T12:45:16.542Z,15.27
2019-01-26T12:47:44.821Z,16.90
2019-01-26T12:50:13.660Z,17.00
2019-01-26T12:52:42.462Z,16.97
2019-01-26T12:55:13.938Z,17.57
2019-01-26T12:57:42.222Z,18.37
2019-01-26T13:00:13.986Z,19.10
2019-01-26T13:02:42.315Z,18.17
2019-01-26T13:05:10.560Z,18.10
2019-01-26T13:07:38.886Z,17.83
2019-01-26T13:10:22.546Z,15.70
2019-01-26T13:12:50.989Z,17.50
2019-01-26T13:15:19.287Z,17.10
2019-01-26T13:17:47.589Z,17.07
2019-01-26T13:20:16.414Z,16.10
2019-01-26T13:22:44.683Z,16.27
2019-01-26T13:25:17.924Z,15.37
2019-01-26T13:27:46.210Z,15.23
2019-01-26T13:30:16.844Z,14.47
2019-01-26T13:32:46.558Z,15.10
2019-01-26T13:35:14.964Z,16.20
2019-01-26T13:37:43.275Z,13.80
2019-01-26T13:40:20.391Z,14.60
2019-01-26T13:42:48.705Z,15.90
2019-01-26T13:45:17.024Z,14.23
2019-01-26T13:47:45.328Z,14.40
2019-01-26T13:50:13.632Z,14.70
2019-01-26T13:52:41.880Z,14.90
2019-01-26T13:55:15.697Z,13.43
2019-01-26T13:57:43.949Z,16.30
2019-01-26T14:00:18.752Z,13.73
2019-01-26T14:02:47.006Z,13.90
2019-01-26T14:05:15.301Z,16.07
2019-01-26T14:07:43.564Z,14.80
2019-01-26T14:10:15.119Z,12.73
2019-01-26T14:12:43.444Z,17.27
2019-01-26T14:15:13.830Z,16.13
2019-01-26T14:17:42.112Z,15.07
2019-01-26T14:20:24.563Z,14.50
2019-01-26T14:22:53.096Z,13.20
2019-01-26T14:25:21.338Z,14.23
2019-01-26T14:27:50.390Z,12.30
2019-01-26T14:30:30.668Z,11.20
2019-01-26T14:32:58.962Z,13.30
2019-01-26T14:35:27.244Z,12.40
2019-01-26T14:37:55.513Z,12.17
2019-01-26T14:40:23.789Z,12.93
2019-01-26T14:42:54.494Z,12.50
2019-01-26T14:45:22.049Z,12.30
2019-01-26T14:47:50.355Z,11.60
2019-01-26T14:50:19.395Z,13.83
2019-01-26T14:52:47.782Z,13.90
2019-01-26T14:55:25.278Z,14.63
2019-01-26T14:57:53.543Z,12.10
2019-01-26T15:00:24.459Z,14.00
2019-01-26T15:02:52.809Z,12.57
2019-01-26T15:05:21.061Z,13.50
2019-01-26T15:07:49.361Z,13.47
2019-01-26T15:10:17.727Z,12.70
2019-01-26T15:12:45.968Z,16.80
2019-01-26T15:15:16.790Z,14.90
2019-01-26T15:17:45.044Z,20.00
2019-01-26T15:20:16.196Z,15.63
2019-01-26T15:22:44.479Z,17.70
2019-01-26T15:25:12.789Z,16.23
2019-01-26T15:27:41.068Z,17.33
2019-01-26T15:30:18.556Z,17.40
2019-01-26T15:32:46.866Z,18.60
2019-01-26T15:35:15.133Z,15.90
2019-01-26T15:37:43.822Z,17.60
2019-01-26T15:40:13.127Z,17.97
2019-01-26T15:42:41.435Z,18.03
2019-01-26T15:45:13.003Z,18.63
2019-01-26T15:47:41.252Z,18.70
2019-01-26T15:50:13.218Z,17.10
2019-01-26T15:52:42.473Z,17.67
2019-01-26T15:55:19.326Z,19.10
2019-01-26T15:57:47.628Z,23.47
2019-01-26T16:00:22.027Z,29.70
2019-01-26T16:02:50.294Z,23.70
2019-01-26T16:05:18.572Z,23.60
2019-01-26T16:07:46.873Z,21.10
2019-01-26T16:10:21.076Z,24.13
2019-01-26T16:12:49.370Z,20.37
2019-01-26T16:15:20.127Z,21.70
2019-01-26T16:17:48.421Z,21.20
2019-01-26T16:20:20.368Z,19.10
2019-01-26T16:22:48.910Z,19.10
2019-01-26T16:25:17.296Z,21.37
2019-01-26T16:27:45.677Z,18.30
2019-01-26T16:30:22.898Z,18.20
2019-01-26T16:32:51.145Z,17.60
2019-01-26T16:35:19.599Z,18.13
2019-01-26T16:37:47.990Z,16.17
2019-01-26T16:40:25.083Z,16.07
2019-01-26T16:42:53.706Z,16.00
2019-01-26T16:45:27.885Z,17.00
2019-01-26T16:47:56.195Z,17.53
2019-01-26T16:50:27.767Z,14.00
2019-01-26T16:52:56.497Z,17.60
2019-01-26T16:55:24.754Z,15.77
2019-01-26T16:57:53.096Z,14.47
2019-01-26T17:00:30.583Z,16.17
2019-01-26T17:02:58.858Z,14.00
2019-01-26T17:05:27.203Z,13.83
2019-01-26T17:07:55.549Z,12.40
2019-01-26T17:10:23.817Z,11.17
2019-01-26T17:12:52.140Z,10.93
2019-01-26T17:15:20.444Z,9.73
2019-01-26T17:17:48.715Z,9.53
2019-01-26T17:20:20.244Z,8.97
2019-01-26T17:22:48.533Z,8.73
2019-01-26T17:25:16.828Z,8.40
2019-01-26T17:27:45.114Z,8.70
2019-01-26T17:30:16.414Z,7.60
2019-01-26T17:32:44.938Z,9.10
2019-01-26T17:35:13.198Z,9.23
2019-01-26T17:37:41.461Z,7.40
2019-01-26T17:40:13.294Z,7.83
2019-01-26T17:42:41.676Z,8.23
2019-01-26T17:45:11.608Z,7.90
2019-01-26T17:47:39.874Z,6.57
2019-01-26T17:50:11.387Z,8.60
2019-01-26T17:52:40.502Z,7.80
2019-01-26T17:55:11.856Z,6.80
2019-01-26T17:57:40.504Z,6.77
2019-01-26T18:00:19.272Z,7.23
2019-01-26T18:02:47.523Z,7.73
2019-01-26T18:05:15.817Z,8.23
2019-01-26T18:07:44.096Z,8.60
2019-01-26T18:10:15.483Z,7.13
2019-01-26T18:12:43.731Z,8.83
2019-01-26T18:15:14.074Z,8.20
2019-01-26T18:17:44.703Z,8.27
2019-01-26T18:20:16.126Z,9.70
2019-01-26T18:22:44.428Z,9.30
2019-01-26T18:25:12.698Z,12.83
2019-01-26T18:27:40.977Z,11.90
2019-01-26T18:30:13.023Z,12.00
2019-01-26T18:32:41.321Z,12.53
2019-01-26T18:35:13.848Z,13.50
2019-01-26T18:37:42.192Z,13.90
2019-01-26T18:40:13.648Z,13.90
2019-01-26T18:42:41.919Z,14.40
2019-01-26T18:45:19.349Z,18.07
2019-01-26T18:47:47.687Z,20.40
2019-01-26T18:50:18.954Z,17.17
2019-01-26T18:52:47.228Z,21.53
2019-01-26T18:55:15.505Z,31.77
2019-01-26T18:57:43.764Z,28.13
2019-01-26T19:00:15.422Z,48.43
2019-01-26T19:02:43.810Z,30.77
2019-01-26T19:05:15.347Z,39.17
2019-01-26T19:07:43.640Z,24.87
2019-01-26T19:10:13.447Z,18.07
2019-01-26T19:12:41.762Z,23.53
2019-01-26T19:15:13.506Z,22.10
2019-01-26T19:17:41.896Z,23.87
2019-01-26T19:20:12.234Z,22.43
2019-01-26T19:22:40.499Z,21.70
2019-01-26T19:25:12.005Z,23.53
2019-01-26T19:27:40.440Z,22.20
2019-01-26T19:30:12.255Z,24.00
2019-01-26T19:32:40.550Z,25.13
2019-01-26T19:35:10.014Z,18.47
2019-01-26T19:37:38.348Z,23.50
2019-01-26T19:40:12.758Z,19.43
2019-01-26T19:42:41.026Z,17.97
2019-01-26T19:45:12.069Z,17.57
2019-01-26T19:47:40.324Z,20.30
2019-01-26T19:50:12.026Z,19.87
2019-01-26T19:52:40.553Z,20.77
2019-01-26T19:55:08.878Z,19.40
2019-01-26T19:57:37.156Z,24.27
2019-01-26T20:00:08.491Z,27.70
2019-01-26T20:02:36.754Z,23.77
2019-01-26T20:05:08.598Z,19.53
2019-01-26T20:07:37.185Z,23.10
2019-01-26T20:10:09.465Z,18.43
2019-01-26T20:12:40.311Z,19.40
2019-01-26T20:15:14.258Z,20.17
2019-01-26T20:17:44.323Z,57.07
2019-01-26T20:20:18.889Z,46.30
2019-01-26T20:22:48.064Z,53.87
2019-01-26T20:25:16.322Z,46.77
2019-01-26T20:27:44.732Z,31.10
2019-01-26T20:30:24.650Z,40.10
2019-01-26T20:32:52.969Z,38.97
2019-01-26T20:35:21.287Z,35.37
2019-01-26T20:37:49.686Z,80.60
2019-01-26T20:40:18.648Z,54.93
2019-01-26T20:42:46.977Z,41.40
2019-01-26T20:45:20.680Z,33.40
2019-01-26T20:47:48.987Z,45.37
2019-01-26T20:50:18.128Z,51.77
2019-01-26T20:52:46.550Z,37.87
2019-01-26T20:55:14.880Z,40.13
2019-01-26T20:57:43.140Z,32.70
2019-01-26T21:00:29.042Z,31.87
2019-01-26T21:02:57.374Z,29.70
2019-01-26T21:05:25.799Z,27.37
2019-01-26T21:07:54.445Z,25.37
2019-01-26T21:10:25.107Z,28.87
2019-01-26T21:12:53.360Z,35.20
2019-01-26T21:15:21.755Z,33.87
2019-01-26T21:17:50.038Z,33.80
2019-01-26T21:20:20.977Z,30.00
2019-01-26T21:22:49.369Z,25.50
2019-01-26T21:25:17.639Z,32.43
2019-01-26T21:27:45.923Z,24.10
2019-01-26T21:30:19.681Z,24.03
2019-01-26T21:32:47.984Z,21.27
2019-01-26T21:35:16.230Z,23.73
2019-01-26T21:37:44.499Z,20.10
2019-01-26T21:40:21.232Z,18.27
2019-01-26T21:42:49.611Z,17.00
2019-01-26T21:45:18.207Z,18.33
2019-01-26T21:47:46.459Z,16.97
2019-01-26T21:50:19.874Z,15.07
2019-01-26T21:52:48.175Z,15.57
2019-01-26T21:55:16.476Z,13.53
2019-01-26T21:57:44.732Z,17.13
2019-01-26T22:00:15.934Z,15.80
2019-01-26T22:02:44.320Z,15.27
2019-01-26T22:05:12.945Z,15.70
2019-01-26T22:07:41.208Z,14.33
2019-01-26T22:10:15.516Z,16.20
2019-01-26T22:12:43.764Z,17.40
2019-01-26T22:15:17.703Z,16.17
2019-01-26T22:17:46.518Z,14.00
2019-01-26T22:20:17.684Z,16.00
2019-01-26T22:22:46.416Z,13.67
2019-01-26T22:25:14.882Z,15.30
2019-01-26T22:27:43.136Z,15.60
2019-01-26T22:30:14.497Z,16.20
2019-01-26T22:32:42.775Z,16.00
2019-01-26T22:35:11.033Z,16.43
2019-01-26T22:37:39.310Z,15.57
2019-01-26T22:40:10.850Z,14.20
2019-01-26T22:42:39.103Z,13.80
2019-01-26T22:45:10.481Z,15.37
2019-01-26T22:47:38.795Z,13.40
2019-01-26T22:50:16.434Z,14.23
2019-01-26T22:52:44.784Z,13.70
2019-01-26T22:55:15.397Z,13.37
2019-01-26T22:57:43.697Z,15.27
2019-01-26T23:00:55.313Z,13.40
2019-01-26T23:03:42.288Z,15.27
2019-01-26T23:06:30.397Z,12.07
2019-01-26T23:09:01.898Z,13.50
2019-01-26T23:11:53.202Z,12.80
2019-01-26T23:14:42.742Z,14.17
2019-01-26T23:17:14.282Z,11.43
2019-01-26T23:19:51.890Z,12.73
2019-01-26T23:22:49.117Z,13.17
2019-01-26T23:25:23.063Z,11.13
2019-01-26T23:27:54.706Z,11.70
2019-01-26T23:30:28.791Z,11.90
2019-01-26T23:32:57.059Z,11.63
2019-01-26T23:35:25.338Z,11.03
2019-01-26T23:37:53.601Z,12.10
2019-01-26T23:40:21.927Z,12.60
2019-01-26T23:42:50.206Z,11.50
2019-01-26T23:45:18.480Z,12.10
2019-01-26T23:47:46.727Z,12.03
2019-01-26T23:50:15.074Z,12.53
2019-01-26T23:52:43.977Z,11.97
2019-01-26T23:55:12.223Z,11.13
2019-01-26T23:57:40.528Z,11.30
